Terminal Aerodrome Forecast
Issued by NWS Northern Indiana

Home | Current Version | Previous Version | Text Only | Print | Product List | Glossary Off
Versions: 1 2 3 4 5 6 7 8 9 10 11

142
FTUS43 KIWX 211029 AAA
TAFFWA
TAF AMD
KFWA 211029Z 2110/2206 30010KT P6SM BKN035
      TEMPO 2110/2114 BKN030
     FM220100 36007KT P6SM BKN070=

USA.gov is the U.S. government's official web portal to all federal, state and local government web resources and services.